Time;durP1;ratioP1;P1;durP2;ratioP2;P2;SDS_P1;SDS_P2;PMS_P1;PMS_P2;Temp;Humidity;BMP_temperature;BMP_pressure;BME280_temperature;BME280_humidity;BME280_pressure;Samples;Min_cycle;Max_cycle;Signal;HPM_P1;HPM_P2
2021/09/23 00:00:30;;;;;;;8.13;4.70;;;;;;;10.50;85.62;97071.25;5028178;28;20218;-67
2021/09/23 00:05:44;;;;;;;6.43;4.20;;;;;;;10.19;83.87;97079.81;4985366;28;20285;-67
2021/09/23 00:08:13;;;;;;;7.43;4.87;;;;;;;10.48;85.56;97070.59;5027876;28;20202;-67
2021/09/23 00:10:42;;;;;;;7.70;4.70;;;;;;;10.66;85.09;97074.00;5028178;28;20236;-68
2021/09/23 00:13:11;;;;;;;9.43;4.90;;;;;;;10.67;84.53;97067.75;5027876;28;20250;-67
2021/09/23 00:15:38;;;;;;;8.17;4.77;;;;;;;10.66;84.27;97069.53;5027842;28;20205;-68
2021/09/23 00:18:09;;;;;;;7.87;4.80;;;;;;;10.65;85.67;97069.69;5017726;28;20206;-68
2021/09/23 00:20:40;;;;;;;8.70;4.07;;;;;;;10.71;83.15;97066.44;5016814;28;20908;-67
2021/09/23 00:23:08;;;;;;;8.43;4.60;;;;;;;10.53;83.25;97066.50;5027776;28;20206;-67
2021/09/23 00:25:38;;;;;;;6.27;4.27;;;;;;;10.46;85.67;97070.75;5027833;28;20210;-68
2021/09/23 00:28:07;;;;;;;6.77;4.13;;;;;;;10.41;85.15;97059.00;5027923;28;20256;-68
2021/09/23 00:30:35;;;;;;;6.23;4.07;;;;;;;10.43;83.56;97054.44;5027544;28;20213;-67
2021/09/23 00:33:03;;;;;;;7.13;3.90;;;;;;;10.30;84.23;97050.56;5031425;28;20232;-68
2021/09/23 00:35:31;;;;;;;5.00;3.50;;;;;;;10.32;84.37;97046.78;5030611;28;20673;-67
2021/09/23 00:37:59;;;;;;;5.07;4.00;;;;;;;10.28;84.26;97048.06;5031477;28;20198;-67
2021/09/23 00:40:27;;;;;;;5.67;3.63;;;;;;;10.16;82.34;97046.69;5031156;28;20225;-68
2021/09/23 00:42:56;;;;;;;5.33;3.47;;;;;;;10.22;83.20;97047.88;5031324;28;20206;-68
2021/09/23 00:45:24;;;;;;;6.73;3.87;;;;;;;10.16;85.53;97036.16;5031354;28;20256;-67
2021/09/23 00:47:51;;;;;;;6.33;3.93;;;;;;;10.23;85.27;97033.72;5031323;28;20233;-67
2021/09/23 00:50:22;;;;;;;5.57;3.63;;;;;;;10.26;83.41;97028.13;5031289;28;20272;-68
2021/09/23 00:52:50;;;;;;;9.00;5.40;;;;;;;10.02;87.50;97028.00;5031387;28;20226;-68
2021/09/23 00:55:18;;;;;;;8.53;5.47;;;;;;;10.13;88.68;97018.03;5031139;28;20636;-67
2021/09/23 00:57:46;;;;;;;10.00;5.13;;;;;;;10.25;87.48;97015.97;5030684;28;20234;-68
2021/09/23 01:00:18;;;;;;;10.70;4.77;;;;;;;10.36;84.03;97013.88;5031080;28;20220;-67
2021/09/23 01:02:46;;;;;;;7.83;4.83;;;;;;;10.07;86.47;97018.66;5031203;28;20209;-68
2021/09/23 01:05:14;;;;;;;11.90;5.10;;;;;;;10.08;87.51;97007.16;5031096;28;20297;-68
2021/09/23 01:07:45;;;;;;;10.20;5.37;;;;;;;10.19;84.95;97008.69;5029932;28;20244;-67
2021/09/23 01:10:14;;;;;;;8.27;4.80;;;;;;;10.13;83.77;97011.94;5030850;28;20220;-68
2021/09/23 01:12:44;;;;;;;8.43;5.10;;;;;;;9.54;86.64;97018.88;5030878;28;20212;-68
2021/09/23 01:15:15;;;;;;;8.33;5.23;;;;;;;9.92;85.69;97014.88;5030748;28;20260;-68
2021/09/23 01:17:44;;;;;;;10.80;6.40;;;;;;;10.03;88.33;97016.47;5030067;28;20701;-68
2021/09/23 01:20:13;;;;;;;10.67;6.17;;;;;;;10.12;89.35;97023.44;5030636;28;20209;-68
2021/09/23 01:22:42;;;;;;;8.43;5.40;;;;;;;9.99;85.94;97017.75;5030429;28;20213;-67
2021/09/23 01:25:14;;;;;;;11.40;5.53;;;;;;;10.03;86.67;97022.59;5030357;28;20225;-68
2021/09/23 01:27:42;;;;;;;10.47;6.13;;;;;;;9.86;89.00;97014.69;5030253;28;20287;-67
2021/09/23 01:30:10;;;;;;;12.10;6.23;;;;;;;9.94;89.57;97007.69;5029526;28;20246;-67
2021/09/23 01:32:38;;;;;;;11.90;6.03;;;;;;;10.11;88.50;97003.38;5030286;28;20205;-68
2021/09/23 01:35:07;;;;;;;14.47;6.63;;;;;;;10.27;89.29;97004.28;5030199;28;20214;-68
2021/09/23 01:37:35;;;;;;;13.43;6.90;;;;;;;10.30;89.93;97001.34;5029902;28;20706;-68
2021/09/23 01:40:04;;;;;;;15.47;6.63;;;;;;;10.43;88.57;96999.91;5030118;28;20658;-67
2021/09/23 01:42:32;;;;;;;12.93;6.53;;;;;;;10.18;88.18;97005.22;5029509;28;20248;-67
2021/09/23 01:45:01;;;;;;;12.57;7.00;;;;;;;10.25;88.60;96989.63;5030065;28;21152;-67
2021/09/23 01:47:28;;;;;;;10.40;6.33;;;;;;;10.29;88.49;96991.78;5029626;28;20230;-67
2021/09/23 01:49:56;;;;;;;12.73;6.07;;;;;;;10.35;87.28;96991.16;5029895;28;20210;-67
2021/09/23 01:52:24;;;;;;;9.23;5.60;;;;;;;10.29;87.39;96986.50;5029876;28;20205;-67
2021/09/23 01:54:52;;;;;;;10.33;5.80;;;;;;;10.30;85.58;96982.06;5029509;28;20225;-67
2021/09/23 01:57:21;;;;;;;10.77;5.77;;;;;;;10.47;85.59;96982.00;5029442;28;20257;-67
2021/09/23 01:59:49;;;;;;;8.60;5.47;;;;;;;10.23;84.50;96981.06;5029913;28;20259;-68
2021/09/23 02:02:17;;;;;;;11.40;5.93;;;;;;;10.31;84.40;96976.66;5029589;28;20611;-67
2021/09/23 02:04:44;;;;;;;10.17;6.33;;;;;;;10.24;87.05;96978.25;5029781;28;20198;-68
2021/09/23 02:07:12;;;;;;;12.17;6.40;;;;;;;10.25;86.29;96974.66;5029025;28;20226;-67
2021/09/23 02:09:40;;;;;;;10.20;6.43;;;;;;;10.16;86.42;96964.25;5029813;28;20206;-67
2021/09/23 02:12:08;;;;;;;11.67;6.27;;;;;;;10.27;86.37;96977.94;5029412;28;21103;-67
2021/09/23 02:14:37;;;;;;;13.40;6.33;;;;;;;10.43;87.11;96976.19;5028419;28;20222;-67
2021/09/23 02:17:05;;;;;;;10.40;6.03;;;;;;;10.16;84.74;96975.59;5029002;28;20236;-67
2021/09/23 02:19:32;;;;;;;8.87;5.77;;;;;;;10.24;84.47;96973.00;5029097;28;20210;-67
2021/09/23 02:22:00;;;;;;;10.17;6.00;;;;;;;10.10;86.33;96970.94;5029011;28;20210;-68
2021/09/23 02:24:27;;;;;;;13.17;5.60;;;;;;;10.08;83.38;96966.81;5028680;28;20202;-67
2021/09/23 02:26:55;;;;;;;12.17;6.17;;;;;;;10.06;86.88;96971.41;5029160;28;20252;-68
2021/09/23 02:29:23;;;;;;;16.03;6.33;;;;;;;10.00;88.14;96964.94;5028269;28;20210;-67
2021/09/23 02:31:52;;;;;;;13.27;7.20;;;;;;;10.26;89.44;96965.75;5028424;28;20673;-67
2021/09/23 02:34:19;;;;;;;12.87;6.40;;;;;;;10.18;87.34;96964.88;5028136;28;20226;-68
2021/09/23 02:36:47;;;;;;;10.23;6.47;;;;;;;10.19;86.67;96961.28;5026994;28;20246;-67
2021/09/23 02:39:15;;;;;;;10.50;6.77;;;;;;;10.34;86.48;96955.25;5028563;28;20212;-67
2021/09/23 02:41:42;;;;;;;14.37;7.57;;;;;;;10.16;89.56;96961.59;5028348;28;20237;-68
2021/09/23 02:44:10;;;;;;;12.60;6.67;;;;;;;10.18;88.06;96957.81;5029152;28;20692;-67
2021/09/23 02:46:38;;;;;;;9.80;5.80;;;;;;;10.15;84.87;96954.69;5027524;28;20233;-67
2021/09/23 02:49:07;;;;;;;11.17;6.07;;;;;;;10.29;85.88;96949.63;5028342;28;20205;-67
2021/09/23 02:51:35;;;;;;;9.50;6.27;;;;;;;10.28;86.28;96947.97;5028632;28;20205;-67
2021/09/23 02:54:02;;;;;;;11.47;6.80;;;;;;;10.18;89.07;96949.09;5028074;28;20225;-67
2021/09/23 02:56:30;;;;;;;16.80;7.77;;;;;;;10.11;89.42;96943.63;5027892;28;20225;-67
2021/09/23 02:58:58;;;;;;;19.23;7.67;;;;;;;9.98;89.83;96934.50;5028386;28;20696;-67
2021/09/23 03:01:26;;;;;;;12.40;6.60;;;;;;;10.13;88.06;96939.03;5028527;28;20248;-67
2021/09/23 03:03:53;;;;;;;11.80;6.93;;;;;;;9.67;87.62;96937.72;5028751;28;20240;-67
2021/09/23 03:06:23;;;;;;;10.60;6.20;;;;;;;9.80;86.08;96931.91;5028188;28;20309;-68
2021/09/23 03:08:50;;;;;;;10.50;6.00;;;;;;;9.18;86.27;96933.09;5028296;28;20665;-67
2021/09/23 03:11:18;;;;;;;11.93;5.60;;;;;;;9.53;86.78;96928.59;5028266;28;20210;-67
2021/09/23 03:13:45;;;;;;;11.27;6.87;;;;;;;9.60;89.23;96928.78;5062121;23;20235;-71
2021/09/23 03:16:11;;;;;;;13.07;7.17;;;;;;;9.66;88.78;96926.41;5055644;28;20238;-71
2021/09/23 03:18:38;;;;;;;13.37;6.37;;;;;;;9.15;87.38;96923.72;5055851;28;20200;-71
2021/09/23 03:21:04;;;;;;;14.77;6.70;;;;;;;9.32;86.43;96924.66;5057373;28;20215;-71
2021/09/23 03:23:32;;;;;;;13.37;6.77;;;;;;;9.35;87.03;96919.91;5048601;28;20221;-71
2021/09/23 03:25:59;;;;;;;9.80;5.83;;;;;;;9.37;89.17;96914.50;5049413;28;20212;-71
2021/09/23 03:28:26;;;;;;;13.40;6.20;;;;;;;9.45;87.89;96904.84;5044788;28;20205;-72
2021/09/23 03:30:52;;;;;;;11.33;5.60;;;;;;;9.55;85.77;96907.41;5042584;28;20213;-71
2021/09/23 03:33:19;;;;;;;9.70;5.70;;;;;;;8.97;87.02;96922.03;5046122;28;20235;-73
2021/09/23 03:35:45;;;;;;;7.83;5.10;;;;;;;9.15;86.77;96917.59;5047426;28;20200;-71
2021/09/23 03:38:12;;;;;;;8.77;5.27;;;;;;;9.26;85.38;96917.38;5045682;28;20201;-72
2021/09/23 03:40:44;;;;;;;25.57;6.23;;;;;;;9.15;87.24;96922.84;5048444;28;20682;-71
2021/09/23 03:43:10;;;;;;;12.00;6.60;;;;;;;9.15;87.04;96914.97;5045065;28;20232;-71
2021/09/23 03:45:37;;;;;;;20.47;7.87;;;;;;;8.92;88.72;96916.41;5047457;28;20192;-73
2021/09/23 03:48:04;;;;;;;12.67;6.87;;;;;;;9.05;89.56;96909.00;5047854;28;20217;-73
2021/09/23 03:50:31;;;;;;;13.57;6.87;;;;;;;9.09;90.18;96905.09;5044475;28;20204;-73
2021/09/23 03:52:57;;;;;;;18.03;7.77;;;;;;;9.16;90.16;96900.84;5045207;28;20217;-73
2021/09/23 03:55:24;;;;;;;14.00;7.93;;;;;;;9.11;91.56;96889.97;5046317;28;20601;-73
2021/09/23 03:57:52;;;;;;;14.50;7.80;;;;;;;9.38;89.50;96885.41;5047364;28;20212;-73
2021/09/23 04:00:20;;;;;;;15.30;7.53;;;;;;;9.22;88.74;96887.09;5046091;28;20212;-72
2021/09/23 04:02:47;;;;;;;11.73;7.20;;;;;;;9.19;88.89;96888.22;5044524;28;20703;-73
2021/09/23 04:05:14;;;;;;;14.43;7.37;;;;;;;9.16;88.84;96890.34;5045793;28;20197;-73
2021/09/23 04:07:40;;;;;;;16.03;6.83;;;;;;;9.20;89.17;96883.78;5050767;28;20208;-73
2021/09/23 04:10:08;;;;;;;17.00;7.40;;;;;;;9.41;89.35;96882.47;5051199;28;20201;-73
2021/09/23 04:12:35;;;;;;;32.77;8.40;;;;;;;9.42;90.94;96883.28;5048755;28;20728;-73
2021/09/23 04:15:04;;;;;;;17.13;7.43;;;;;;;9.60;90.97;96870.91;5047939;28;20229;-72
2021/09/23 04:17:30;;;;;;;13.83;7.60;;;;;;;9.53;90.58;96869.88;5047198;28;20256;-73
2021/09/23 04:19:57;;;;;;;14.50;7.80;;;;;;;9.68;90.36;96868.34;5053500;28;20204;-73
2021/09/23 04:22:24;;;;;;;11.70;7.53;;;;;;;9.79;89.81;96863.63;5048869;28;20605;-73
2021/09/23 04:24:50;;;;;;;16.10;6.93;;;;;;;9.67;89.82;96870.13;5048108;28;20213;-73
2021/09/23 04:27:17;;;;;;;13.63;7.43;;;;;;;9.66;89.04;96870.28;5049208;28;20205;-71
2021/09/23 04:29:44;;;;;;;13.13;7.70;;;;;;;9.61;89.84;96872.56;5047440;28;20204;-73
2021/09/23 04:32:12;;;;;;;12.33;7.27;;;;;;;9.71;90.23;96874.94;5050159;28;20277;-73
2021/09/23 04:34:39;;;;;;;23.97;7.67;;;;;;;9.55;90.02;96870.56;5048329;28;20239;-73
2021/09/23 04:37:06;;;;;;;62.50;8.73;;;;;;;9.43;91.56;96879.69;5047795;28;20201;-73
2021/09/23 04:39:32;;;;;;;25.93;8.07;;;;;;;9.51;93.95;96864.78;5050758;28;20200;-73
2021/09/23 04:41:59;;;;;;;21.07;8.33;;;;;;;9.59;93.44;96869.28;5050808;28;20323;-71
2021/09/23 04:44:27;;;;;;;15.70;8.23;;;;;;;9.74;93.16;96866.72;5048012;28;20861;-73
2021/09/23 04:46:54;;;;;;;13.80;7.60;;;;;;;9.81;91.71;96870.41;5047621;28;20271;-72
2021/09/23 04:49:22;;;;;;;18.43;7.90;;;;;;;9.91;91.65;96855.28;5049799;28;20201;-73
2021/09/23 04:51:48;;;;;;;14.63;7.90;;;;;;;9.51;92.89;96846.38;5050608;28;20219;-73
2021/09/23 04:54:15;;;;;;;15.87;7.90;;;;;;;9.57;93.10;96840.50;5049592;28;20232;-72
2021/09/23 04:56:42;;;;;;;16.10;8.13;;;;;;;9.68;92.19;96824.41;5046984;28;20208;-73
2021/09/23 04:59:08;;;;;;;51.53;13.73;;;;;;;9.85;89.53;96834.03;5047443;28;20693;-73
2021/09/23 05:01:35;;;;;;;45.83;12.67;;;;;;;9.83;89.39;96836.81;5050983;28;20201;-73
2021/09/23 05:04:01;;;;;;;32.70;11.10;;;;;;;9.45;90.14;96838.28;5051053;28;20228;-73
2021/09/23 05:06:29;;;;;;;17.03;7.40;;;;;;;9.71;91.09;96835.47;5046908;28;20220;-73
2021/09/23 05:08:56;;;;;;;15.53;7.33;;;;;;;9.62;90.02;96829.50;5048907;28;20208;-73
2021/09/23 05:11:23;;;;;;;11.83;6.10;;;;;;;9.74;89.45;96835.13;5048341;28;20223;-73
2021/09/23 05:13:50;;;;;;;10.00;6.20;;;;;;;9.87;88.19;96830.25;5046926;28;20743;-72
2021/09/23 05:16:16;;;;;;;11.87;6.73;;;;;;;9.84;87.96;96832.41;5047641;28;20215;-73
2021/09/23 05:18:43;;;;;;;21.63;7.10;;;;;;;9.76;88.92;96833.19;5049649;28;20211;-73
2021/09/23 05:21:10;;;;;;;25.00;7.63;;;;;;;9.55;89.37;96831.91;5050075;28;20240;-73
2021/09/23 05:23:38;;;;;;;13.80;7.57;;;;;;;9.90;88.88;96835.22;5052715;28;20220;-73
2021/09/23 05:26:06;;;;;;;20.10;8.03;;;;;;;9.68;90.28;96827.06;5049343;28;20201;-73
2021/09/23 05:28:32;;;;;;;14.50;8.47;;;;;;;9.81;89.74;96823.00;5051829;28;20204;-73
2021/09/23 05:30:59;;;;;;;14.07;8.13;;;;;;;9.75;89.98;96826.28;5044410;28;20205;-73
2021/09/23 05:33:25;;;;;;;20.30;7.83;;;;;;;9.85;89.52;96826.13;5042723;28;20221;-73
2021/09/23 05:35:52;;;;;;;13.07;7.30;;;;;;;9.93;90.31;96824.38;5043915;28;20232;-73
2021/09/23 05:38:19;;;;;;;10.33;7.33;;;;;;;10.08;90.58;96819.34;5053162;28;20215;-73
2021/09/23 05:40:46;;;;;;;16.53;7.67;;;;;;;10.25;91.38;96823.69;5049695;28;20215;-73
2021/09/23 05:43:13;;;;;;;13.30;8.27;;;;;;;10.23;91.13;96826.47;5050394;28;20257;-73
2021/09/23 05:45:39;;;;;;;13.60;7.93;;;;;;;10.22;92.74;96826.63;5050388;28;20212;-73
2021/09/23 05:48:06;;;;;;;16.00;8.40;;;;;;;10.29;92.78;96823.19;5047735;28;20308;-73
2021/09/23 05:50:33;;;;;;;25.37;8.80;;;;;;;10.29;92.78;96802.13;5044781;28;20200;-73
2021/09/23 05:52:59;;;;;;;17.80;8.00;;;;;;;10.35;93.02;96812.84;5052948;28;20944;-73
2021/09/23 05:55:26;;;;;;;47.57;9.33;;;;;;;10.28;93.11;96804.94;5053617;28;20224;-73
2021/09/23 05:57:54;;;;;;;54.60;8.47;;;;;;;10.49;91.34;96796.41;5047614;28;20319;-73
2021/09/23 06:00:21;;;;;;;20.73;7.30;;;;;;;10.37;92.74;96789.81;5049548;28;20200;-73
2021/09/23 06:02:48;;;;;;;35.83;7.50;;;;;;;10.44;90.87;96789.97;5051142;28;20227;-73
2021/09/23 06:05:15;;;;;;;19.93;7.13;;;;;;;10.57;91.58;96783.22;5051621;28;20200;-73
2021/09/23 06:07:42;;;;;;;9.87;7.10;;;;;;;10.37;92.22;96783.69;5047651;28;20201;-73
2021/09/23 06:10:10;;;;;;;33.57;6.80;;;;;;;10.54;91.75;96788.03;5042033;28;20216;-73
2021/09/23 06:12:37;;;;;;;25.13;7.03;;;;;;;10.36;91.05;96787.31;5046969;28;20228;-73
2021/09/23 06:15:06;;;;;;;18.70;6.47;;;;;;;10.48;91.63;96775.47;5049354;28;20224;-73
2021/09/23 06:17:33;;;;;;;22.30;7.17;;;;;;;10.33;91.65;96782.38;5044081;28;20204;-73
2021/09/23 06:19:59;;;;;;;15.37;7.07;;;;;;;10.35;93.88;96780.41;5042885;28;20213;-73
2021/09/23 06:22:26;;;;;;;19.67;7.60;;;;;;;10.30;93.51;96790.63;5044269;28;20228;-73
2021/09/23 06:24:52;;;;;;;12.33;7.37;;;;;;;10.49;93.65;96788.50;5048272;28;20805;-73
2021/09/23 06:27:19;;;;;;;84.23;7.80;;;;;;;10.30;92.67;96793.25;5044211;28;20410;-73
2021/09/23 06:29:45;;;;;;;61.50;7.63;;;;;;;10.33;91.92;96788.50;5048476;28;20599;-73
2021/09/23 06:32:13;;;;;;;95.40;9.00;;;;;;;10.42;91.57;96786.66;5047752;28;20200;-73
2021/09/23 06:34:40;;;;;;;11.03;6.77;;;;;;;10.31;93.33;96787.00;5047596;28;20791;-73
2021/09/23 06:37:07;;;;;;;14.53;7.27;;;;;;;10.38;93.26;96791.44;5048195;28;20200;-73
2021/09/23 06:39:33;;;;;;;24.10;7.40;;;;;;;10.48;93.08;96793.94;5046953;28;21135;-73
2021/09/23 06:42:00;;;;;;;21.60;6.80;;;;;;;10.61;93.50;96794.28;5045409;28;20200;-73
2021/09/23 06:44:26;;;;;;;27.50;7.47;;;;;;;10.47;92.94;96789.63;5044839;28;20207;-73
2021/09/23 06:46:53;;;;;;;44.87;7.10;;;;;;;10.36;94.33;96800.47;5051262;28;20201;-73
2021/09/23 06:49:23;;;;;;;19.60;7.90;;;;;;;10.80;94.39;96801.88;5044752;28;20212;-73
2021/09/23 06:51:50;;;;;;;14.23;7.40;;;;;;;10.77;93.55;96805.66;5050284;28;20627;-73
2021/09/23 06:54:16;;;;;;;13.43;7.70;;;;;;;11.00;93.01;96807.44;5043209;28;20229;-73
2021/09/23 06:56:43;;;;;;;31.30;7.87;;;;;;;11.04;93.77;96810.59;5051785;28;20699;-73
2021/09/23 06:59:09;;;;;;;17.93;8.37;;;;;;;11.21;93.77;96801.66;5052171;28;20208;-73
2021/09/23 07:01:36;;;;;;;26.70;8.37;;;;;;;11.34;92.66;96799.31;5043058;28;20201;-73
2021/09/23 07:04:02;;;;;;;13.27;8.17;;;;;;;11.45;91.47;96788.44;5046742;28;20239;-73
2021/09/23 07:06:31;;;;;;;12.63;8.13;;;;;;;11.67;92.94;96796.47;5039870;28;20212;-73
2021/09/23 07:08:57;;;;;;;11.93;7.60;;;;;;;11.63;91.61;96785.44;5047632;28;20459;-73
2021/09/23 07:11:24;;;;;;;11.77;7.40;;;;;;;11.81;92.17;96793.13;5050500;28;20578;-73
2021/09/23 07:13:50;;;;;;;15.23;7.67;;;;;;;11.73;91.12;96780.75;5051812;28;20240;-73
2021/09/23 07:16:17;;;;;;;11.90;7.57;;;;;;;11.97;91.60;96788.59;5054046;28;20810;-72
2021/09/23 07:18:43;;;;;;;17.00;7.80;;;;;;;11.85;91.15;96783.84;5055012;28;20200;-72
2021/09/23 07:21:10;;;;;;;12.53;7.50;;;;;;;12.07;90.44;96791.03;5049532;28;20205;-73
2021/09/23 07:23:37;;;;;;;13.60;7.00;;;;;;;12.64;89.75;96777.28;5050722;28;20783;-72
2021/09/23 07:26:04;;;;;;;10.57;6.70;;;;;;;12.22;89.02;96777.72;5050119;28;20658;-73
2021/09/23 07:28:30;;;;;;;21.50;7.40;;;;;;;11.93;88.64;96792.56;5046984;28;20201;-73
2021/09/23 07:30:57;;;;;;;19.03;7.90;;;;;;;11.88;89.50;96789.63;5046920;28;21269;-73
2021/09/23 07:33:24;;;;;;;12.57;8.17;;;;;;;12.02;91.17;96794.19;5048302;28;20236;-73
2021/09/23 07:35:50;;;;;;;16.63;8.73;;;;;;;12.27;90.11;96785.97;5044641;28;20239;-72
2021/09/23 07:38:17;;;;;;;15.37;8.70;;;;;;;12.49;89.95;96787.81;5047702;28;20201;-74
2021/09/23 07:40:45;;;;;;;21.10;9.23;;;;;;;12.67;88.52;96779.59;5047967;28;20200;-71
2021/09/23 07:43:11;;;;;;;15.03;9.40;;;;;;;12.44;89.17;96773.47;5046237;28;20217;-74
2021/09/23 07:45:38;;;;;;;14.57;9.13;;;;;;;12.73;89.59;96782.34;5046692;28;20207;-72
2021/09/23 07:48:05;;;;;;;16.17;9.10;;;;;;;13.04;88.53;96764.59;5046515;28;20208;-73
2021/09/23 07:50:31;;;;;;;19.17;10.10;;;;;;;13.00;87.54;96773.91;5047214;28;20984;-71
2021/09/23 07:52:58;;;;;;;15.07;8.93;;;;;;;13.10;88.11;96771.81;5047681;28;20224;-71
2021/09/23 07:55:24;;;;;;;23.20;9.93;;;;;;;13.01;87.36;96768.41;5045004;28;20719;-71
2021/09/23 07:57:52;;;;;;;16.37;9.80;;;;;;;13.41;86.43;96766.19;5044783;28;20209;-72
2021/09/23 08:00:19;;;;;;;17.40;9.83;;;;;;;13.48;86.52;96761.81;5046040;28;20201;-73
2021/09/23 08:02:45;;;;;;;21.33;10.83;;;;;;;13.57;86.85;96757.28;5047736;28;20718;-73
2021/09/23 08:05:15;;;;;;;17.77;9.67;;;;;;;13.40;86.05;96767.22;5046569;28;20204;-71
2021/09/23 08:07:44;;;;;;;19.97;9.30;;;;;;;13.27;86.34;96768.00;5036681;28;20206;-70
2021/09/23 08:10:11;;;;;;;21.63;9.40;;;;;;;13.38;86.90;96771.03;5044065;28;20207;-74
2021/09/23 08:12:38;;;;;;;20.67;11.33;;;;;;;13.33;86.18;96770.75;5047802;28;20601;-74
2021/09/23 08:15:06;;;;;;;16.90;9.70;;;;;;;13.64;85.25;96780.16;5047278;28;20204;-74
2021/09/23 08:17:33;;;;;;;19.50;9.43;;;;;;;13.65;86.31;96781.81;5043862;28;20208;-74
2021/09/23 08:19:59;;;;;;;21.03;10.93;;;;;;;13.58;85.77;96785.38;5047843;28;20689;-74
2021/09/23 08:22:26;;;;;;;19.13;10.35;;;;;;;13.49;86.78;96783.81;5040055;28;20225;-74
2021/09/23 08:24:52;;;;;;;16.83;10.27;;;;;;;13.35;87.65;96789.91;5046476;28;20201;-74
2021/09/23 08:27:19;;;;;;;18.33;9.85;;;;;;;13.36;87.52;96780.97;5046341;28;20586;-74
2021/09/23 08:29:46;;;;;;;16.40;10.73;;;;;;;13.57;87.85;96779.25;5044896;28;20219;-74
2021/09/23 08:32:17;;;;;;;22.00;11.30;;;;;;;13.56;89.71;96782.09;5045435;28;20717;-74
2021/09/23 08:34:44;;;;;;;18.10;10.37;;;;;;;13.50;89.36;96778.38;5044606;28;20299;-74
2021/09/23 08:37:11;;;;;;;19.50;11.27;;;;;;;13.72;88.49;96784.56;5048154;28;20240;-74
2021/09/23 08:39:37;;;;;;;22.65;11.60;;;;;;;13.68;88.16;96784.13;5046997;28;20574;-74
2021/09/23 08:42:04;;;;;;;21.83;12.50;;;;;;;13.70;90.39;96797.97;5046461;28;20217;-74
2021/09/23 08:44:31;;;;;;;24.13;11.52;;;;;;;13.95;89.39;96796.72;5044228;28;20197;-75
2021/09/23 08:46:57;;;;;;;19.20;11.05;;;;;;;13.77;88.62;96790.97;5043632;28;20208;-74
2021/09/23 08:49:25;;;;;;;23.65;12.18;;;;;;;14.04;88.97;96790.31;5046942;28;21563;-74
2021/09/23 08:51:52;;;;;;;20.60;11.68;;;;;;;13.95;89.88;96796.72;5046881;28;20204;-73
2021/09/23 08:54:18;;;;;;;21.17;12.27;;;;;;;14.00;89.30;96794.31;5051746;28;20231;-71
2021/09/23 08:56:45;;;;;;;19.77;12.07;;;;;;;14.24;87.15;96786.09;5049777;28;20727;-71
2021/09/23 08:59:12;;;;;;;24.17;12.48;;;;;;;14.44;85.09;96771.22;5052244;28;20207;-71
2021/09/23 09:01:48;;;;;;;20.38;10.82;;;;;;;14.49;83.80;96766.19;5050966;28;20585;-71
2021/09/23 09:04:15;;;;;;;14.38;8.50;;;;;;;14.44;79.67;96757.97;5044292;28;20224;-71
2021/09/23 09:06:53;;;;;;;17.00;9.40;;;;;;;14.74;80.70;96750.53;5046458;28;20200;-71
2021/09/23 09:09:20;;;;;;;16.20;8.65;;;;;;;15.17;80.24;96748.66;5051135;28;20205;-71
2021/09/23 09:11:47;;;;;;;16.85;9.90;;;;;;;15.47;79.05;96754.41;5048337;28;20201;-71
2021/09/23 09:14:23;;;;;;;18.23;10.23;;;;;;;16.02;78.08;96760.44;5047977;28;20232;-71
2021/09/23 09:16:55;;;;;;;19.17;11.10;;;;;;;15.56;79.41;96760.41;5047972;28;20228;-71
2021/09/23 09:19:21;;;;;;;17.48;10.85;;;;;;;15.88;79.10;96755.28;5052968;28;20204;-71
2021/09/23 09:21:50;;;;;;;16.25;9.60;;;;;;;15.73;77.51;96756.41;5048837;28;20852;-71
2021/09/23 09:24:18;;;;;;;20.48;10.25;;;;;;;15.96;76.80;96757.75;5044043;28;20283;-71
2021/09/23 09:26:45;;;;;;;16.25;9.35;;;;;;;15.96;77.31;96747.97;5050200;28;20201;-71
2021/09/23 09:29:15;;;;;;;18.95;9.60;;;;;;;15.91;76.26;96750.38;5046693;28;20220;-71
2021/09/23 09:31:47;;;;;;;16.48;9.55;;;;;;;15.94;74.99;96755.31;5049792;28;20295;-71
2021/09/23 09:34:14;;;;;;;18.40;9.70;;;;;;;16.19;77.29;96755.59;5044984;28;20278;-71
2021/09/23 09:36:42;;;;;;;16.23;9.48;;;;;;;16.20;75.22;96755.41;5047111;28;20231;-71
2021/09/23 09:39:12;;;;;;;15.05;8.55;;;;;;;16.15;74.23;96757.03;5048643;28;20220;-71
2021/09/23 09:41:43;;;;;;;17.58;9.90;;;;;;;16.49;74.53;96749.81;5045256;28;20664;-71
2021/09/23 09:44:11;;;;;;;16.25;9.38;;;;;;;16.67;75.20;96737.56;5047413;28;20235;-71
2021/09/23 09:46:41;;;;;;;15.40;9.20;;;;;;;16.55;73.76;96730.41;5052692;28;20212;-71
2021/09/23 09:49:09;;;;;;;15.30;9.10;;;;;;;16.76;73.89;96725.72;5050679;28;20197;-71
2021/09/23 09:51:38;;;;;;;16.65;8.98;;;;;;;16.83;75.12;96725.72;5045491;28;20201;-71
2021/09/23 09:54:06;;;;;;;15.23;8.95;;;;;;;16.94;75.88;96714.47;5049247;28;20225;-71
2021/09/23 09:56:33;;;;;;;16.17;10.40;;;;;;;16.89;74.50;96717.75;5045132;28;20336;-71
2021/09/23 09:59:13;;;;;;;15.45;9.88;;;;;;;17.26;75.44;96707.31;5045749;28;20220;-69
2021/09/23 10:01:42;;;;;;;17.00;9.02;;;;;;;17.42;75.77;96712.19;5046505;28;20208;-69
2021/09/23 10:04:10;;;;;;;13.73;8.73;;;;;;;17.81;72.67;96712.13;5046699;28;20994;-70
2021/09/23 10:06:37;;;;;;;14.98;7.50;;;;;;;17.58;71.03;96708.28;5049271;28;20220;-71
2021/09/23 10:09:04;;;;;;;14.93;7.88;;;;;;;17.44;73.07;96704.84;5046988;28;20205;-70
2021/09/23 10:11:31;;;;;;;15.88;8.45;;;;;;;17.76;72.29;96699.41;5045862;28;20201;-71
2021/09/23 10:13:59;;;;;;;12.52;7.55;;;;;;;17.92;71.79;96698.13;5046014;28;20232;-70
2021/09/23 10:16:28;;;;;;;12.75;7.45;;;;;;;18.44;71.42;96696.91;5047643;28;20217;-70
2021/09/23 10:18:56;;;;;;;12.60;8.05;;;;;;;18.77;71.56;96697.47;5046358;28;20220;-70
2021/09/23 10:21:23;;;;;;;15.20;8.30;;;;;;;18.51;70.03;96692.31;5048254;28;20224;-71
2021/09/23 10:23:51;;;;;;;12.73;8.05;;;;;;;18.91;70.73;96696.34;5048550;28;20997;-70
2021/09/23 10:26:20;;;;;;;16.95;8.35;;;;;;;19.03;70.32;96689.28;5046900;28;20197;-70
2021/09/23 10:28:49;;;;;;;13.48;7.70;;;;;;;19.35;70.03;96683.69;5043435;28;20657;-70
2021/09/23 10:31:20;;;;;;;13.38;8.50;;;;;;;19.16;70.35;96673.19;5046653;28;20205;-70
2021/09/23 10:33:49;;;;;;;12.93;7.13;;;;;;;19.18;70.52;96663.91;5048973;28;20339;-71
2021/09/23 10:36:17;;;;;;;11.35;6.43;;;;;;;19.35;69.26;96654.28;5046869;28;20395;-71
2021/09/23 10:38:45;;;;;;;10.82;5.60;;;;;;;19.12;67.73;96661.31;5045772;28;20205;-70
2021/09/23 10:41:13;;;;;;;10.23;5.13;;;;;;;19.13;65.29;96654.91;5046621;28;20201;-70
2021/09/23 10:43:42;;;;;;;7.70;5.20;;;;;;;18.99;66.11;96664.88;5048909;28;20220;-70
2021/09/23 10:46:11;;;;;;;9.40;5.47;;;;;;;19.25;64.85;96667.31;5048186;28;20201;-71
2021/09/23 10:48:38;;;;;;;7.18;4.82;;;;;;;19.48;65.17;96656.00;5046028;28;20621;-72
2021/09/23 10:51:09;;;;;;;7.35;5.10;;;;;;;19.53;62.63;96665.00;5045194;28;20201;-72
2021/09/23 10:53:37;;;;;;;11.10;6.13;;;;;;;19.84;64.11;96662.97;5045673;28;20225;-72
2021/09/23 10:56:04;;;;;;;11.40;5.30;;;;;;;19.90;59.84;96666.63;5044052;28;20228;-72
2021/09/23 10:58:31;;;;;;;10.65;6.05;;;;;;;19.57;62.39;96662.69;5044823;28;20201;-70
2021/09/23 11:00:59;;;;;;;10.23;6.25;;;;;;;19.62;61.49;96656.44;5045459;28;20228;-72
2021/09/23 11:03:34;;;;;;;10.20;6.10;;;;;;;19.94;61.97;96649.13;5048658;28;20224;-72
2021/09/23 11:06:09;;;;;;;12.32;5.55;;;;;;;20.27;62.88;96653.00;5047154;28;20274;-70
2021/09/23 11:08:40;;;;;;;10.70;5.82;;;;;;;20.45;62.50;96650.28;5044570;28;20578;-71
2021/09/23 11:11:07;;;;;;;8.98;5.03;;;;;;;20.27;60.14;96659.16;5045463;28;20205;-72
2021/09/23 11:13:35;;;;;;;9.13;5.60;;;;;;;20.14;58.45;96645.16;5047404;28;20243;-71
2021/09/23 11:16:04;;;;;;;6.43;4.22;;;;;;;20.16;59.38;96645.72;5045525;28;20211;-73
2021/09/23 11:18:30;;;;;;;8.50;5.10;;;;;;;20.21;60.50;96649.38;5040720;28;20211;-72
2021/09/23 11:20:58;;;;;;;10.07;4.80;;;;;;;20.58;59.99;96647.41;5048296;28;20673;-72
2021/09/23 11:23:28;;;;;;;7.88;4.80;;;;;;;20.86;59.11;96649.25;5046960;28;20225;-71
2021/09/23 11:25:55;;;;;;;8.52;5.03;;;;;;;20.54;61.17;96649.72;5046711;28;21116;-71
2021/09/23 11:28:23;;;;;;;9.25;5.68;;;;;;;20.44;60.97;96648.63;5044466;28;20243;-72
2021/09/23 11:30:51;;;;;;;10.73;5.25;;;;;;;20.33;60.39;96649.44;5045491;28;20585;-71